createdAt,value
2023-07-28T00:00:39.930Z,17.88
2023-07-28T00:01:39.918Z,17.84
2023-07-28T00:02:39.777Z,17.84
2023-07-28T00:03:39.707Z,17.79
2023-07-28T00:04:39.630Z,17.81
2023-07-28T00:05:39.533Z,17.77
2023-07-28T00:06:39.718Z,17.77
2023-07-28T00:07:39.383Z,17.81
2023-07-28T00:08:39.300Z,17.77
2023-07-28T00:09:39.228Z,17.74
2023-07-28T00:10:39.164Z,17.81
2023-07-28T00:11:39.077Z,17.76
2023-07-28T00:12:38.989Z,17.76
2023-07-28T00:13:38.921Z,17.79
2023-07-28T00:14:38.845Z,17.77
2023-07-28T00:15:38.780Z,17.81
2023-07-28T00:16:39.004Z,17.71
2023-07-28T00:17:38.691Z,17.79
2023-07-28T00:18:38.531Z,17.79
2023-07-28T00:19:38.463Z,17.81
2023-07-28T00:20:38.373Z,17.84
2023-07-28T00:21:38.304Z,17.74
2023-07-28T00:22:38.226Z,17.74
2023-07-28T00:23:38.148Z,17.77
2023-07-28T00:24:38.079Z,17.71
2023-07-28T00:25:37.990Z,17.77
2023-07-28T00:26:37.911Z,17.76
2023-07-28T00:27:37.842Z,17.70
2023-07-28T00:28:37.757Z,17.71
2023-07-28T00:29:37.693Z,17.63
2023-07-28T00:30:37.630Z,17.69
2023-07-28T00:31:37.533Z,17.71
2023-07-28T00:32:37.470Z,17.70
2023-07-28T00:33:37.374Z,17.64
2023-07-28T00:34:37.301Z,17.66
2023-07-28T00:35:37.222Z,17.60
2023-07-28T00:36:37.464Z,17.55
2023-07-28T00:37:37.069Z,17.53
2023-07-28T00:38:37.000Z,17.57
2023-07-28T00:39:36.921Z,17.55
2023-07-28T00:40:36.832Z,17.63
2023-07-28T00:41:36.759Z,17.57
2023-07-28T00:42:37.303Z,17.47
2023-07-28T00:43:36.612Z,17.48
2023-07-28T00:44:36.528Z,17.46
2023-07-28T00:45:36.472Z,17.46
2023-07-28T00:46:36.717Z,17.50
2023-07-28T00:47:36.326Z,17.55
2023-07-28T00:48:36.219Z,17.55
2023-07-28T00:49:36.134Z,17.55
2023-07-28T00:50:36.068Z,17.64
2023-07-28T00:51:35.995Z,17.51
2023-07-28T00:52:35.912Z,17.46
2023-07-28T00:53:35.830Z,17.54
2023-07-28T00:54:35.769Z,17.54
2023-07-28T00:55:35.680Z,17.57
2023-07-28T00:56:35.821Z,17.54
2023-07-28T00:57:35.518Z,17.57
2023-07-28T00:58:35.454Z,17.53
2023-07-28T00:59:35.380Z,17.55
2023-07-28T01:00:35.286Z,17.54
2023-07-28T01:01:35.247Z,17.58
2023-07-28T01:02:35.173Z,17.60
2023-07-28T01:03:35.080Z,17.53
2023-07-28T01:04:35.047Z,17.53
2023-07-28T01:05:34.899Z,17.55
2023-07-28T01:06:35.165Z,17.58
2023-07-28T01:07:34.752Z,17.54
2023-07-28T01:08:34.675Z,17.54
2023-07-28T01:09:34.600Z,17.55
2023-07-28T01:10:34.517Z,17.50
2023-07-28T01:11:34.446Z,17.57
2023-07-28T01:12:34.370Z,17.55
2023-07-28T01:13:34.288Z,17.46
2023-07-28T01:14:34.211Z,17.46
2023-07-28T01:15:34.142Z,17.55
2023-07-28T01:16:34.379Z,17.48
2023-07-28T01:17:33.979Z,17.50
2023-07-28T01:18:33.906Z,17.54
2023-07-28T01:19:33.861Z,17.57
2023-07-28T01:20:33.749Z,17.50
2023-07-28T01:21:33.685Z,17.57
2023-07-28T01:22:33.597Z,17.57
2023-07-28T01:23:33.532Z,17.54
2023-07-28T01:24:33.440Z,17.58
2023-07-28T01:25:33.355Z,17.54
2023-07-28T01:26:33.483Z,17.57
2023-07-28T01:27:33.206Z,17.48
2023-07-28T01:28:33.122Z,17.48
2023-07-28T01:29:33.054Z,17.57
2023-07-28T01:30:32.979Z,17.54
2023-07-28T01:31:32.921Z,17.60
2023-07-28T01:32:32.844Z,17.51
2023-07-28T01:33:32.750Z,17.66
2023-07-28T01:34:32.668Z,17.57
2023-07-28T01:35:32.598Z,17.58
2023-07-28T01:36:32.894Z,17.63
2023-07-28T01:37:32.438Z,17.60
2023-07-28T01:38:32.358Z,17.66
2023-07-28T01:39:32.277Z,17.60
2023-07-28T01:40:32.199Z,17.70
2023-07-28T01:41:32.124Z,17.67
2023-07-28T01:42:32.054Z,17.67
2023-07-28T01:43:31.972Z,17.67
2023-07-28T01:44:31.905Z,17.64
2023-07-28T01:45:31.880Z,17.77
2023-07-28T01:46:31.888Z,17.69
2023-07-28T01:47:31.684Z,17.66
2023-07-28T01:48:31.588Z,17.67
2023-07-28T01:49:31.513Z,17.77
2023-07-28T01:50:31.447Z,17.67
2023-07-28T01:51:31.362Z,17.60
2023-07-28T01:52:31.272Z,17.66
2023-07-28T01:53:31.211Z,17.51
2023-07-28T01:54:31.137Z,17.63
2023-07-28T01:55:31.047Z,17.63
2023-07-28T01:56:30.995Z,17.71
2023-07-28T01:57:30.894Z,17.69
2023-07-28T01:58:30.818Z,17.71
2023-07-28T01:59:30.739Z,17.64
2023-07-28T02:00:30.660Z,17.64
2023-07-28T02:01:30.623Z,17.60
2023-07-28T02:02:30.546Z,17.58
2023-07-28T02:03:30.428Z,17.57
2023-07-28T02:04:30.459Z,17.77
2023-07-28T02:05:30.276Z,17.67
2023-07-28T02:06:30.202Z,17.67
2023-07-28T02:07:30.118Z,17.67
2023-07-28T02:08:30.037Z,17.63
2023-07-28T02:09:29.966Z,17.70
2023-07-28T02:10:29.895Z,17.63
2023-07-28T02:11:29.828Z,17.70
2023-07-28T02:12:29.740Z,17.55
2023-07-28T02:13:29.670Z,17.60
2023-07-28T02:14:29.580Z,17.69
2023-07-28T02:15:29.507Z,17.66
2023-07-28T02:16:29.430Z,17.63
2023-07-28T02:17:29.371Z,17.64
2023-07-28T02:18:29.271Z,17.71
2023-07-28T02:19:29.188Z,17.66
2023-07-28T02:20:29.111Z,17.69
2023-07-28T02:21:29.128Z,17.70
2023-07-28T02:22:28.960Z,17.60
2023-07-28T02:23:28.891Z,17.69
2023-07-28T02:24:28.810Z,17.71
2023-07-28T02:25:28.732Z,17.73
2023-07-28T02:26:28.650Z,17.66
2023-07-28T02:27:28.575Z,17.73
2023-07-28T02:28:28.579Z,17.69
2023-07-28T02:29:28.417Z,17.69
2023-07-28T02:30:28.346Z,17.66
2023-07-28T02:31:28.315Z,17.64
2023-07-28T02:32:28.229Z,17.66
2023-07-28T02:33:28.112Z,17.60
2023-07-28T02:34:28.031Z,17.54
2023-07-28T02:35:27.959Z,17.74
2023-07-28T02:36:27.877Z,17.51
2023-07-28T02:37:27.797Z,17.55
2023-07-28T02:38:27.823Z,17.58
2023-07-28T02:39:27.669Z,17.55
2023-07-28T02:40:27.568Z,17.51
2023-07-28T02:41:27.498Z,17.53
2023-07-28T02:42:27.418Z,17.47
2023-07-28T02:43:27.339Z,17.50
2023-07-28T02:44:27.263Z,17.46
2023-07-28T02:45:27.183Z,17.53
2023-07-28T02:46:27.253Z,17.53
2023-07-28T02:47:27.037Z,17.44
2023-07-28T02:48:26.954Z,17.53
2023-07-28T02:49:26.876Z,17.39
2023-07-28T02:50:26.793Z,17.55
2023-07-28T02:51:26.727Z,17.50
2023-07-28T02:52:26.645Z,17.43
2023-07-28T02:53:26.569Z,17.51
2023-07-28T02:54:26.492Z,17.54
2023-07-28T02:55:26.446Z,17.53
2023-07-28T02:56:26.341Z,17.53
2023-07-28T02:57:26.261Z,17.46
2023-07-28T02:58:26.205Z,17.43
2023-07-28T02:59:26.122Z,17.47
2023-07-28T03:00:26.027Z,17.48
2023-07-28T03:01:25.968Z,17.48
2023-07-28T03:02:25.932Z,17.53
2023-07-28T03:03:25.935Z,17.54
2023-07-28T03:04:25.718Z,17.57
2023-07-28T03:05:25.642Z,17.58
2023-07-28T03:06:25.571Z,17.54
2023-07-28T03:07:25.482Z,17.57
2023-07-28T03:08:25.406Z,17.57
2023-07-28T03:09:25.336Z,17.58
2023-07-28T03:10:25.255Z,17.57
2023-07-28T03:11:25.185Z,17.54
2023-07-28T03:12:25.102Z,17.57
2023-07-28T03:13:25.017Z,17.48
2023-07-28T03:14:24.955Z,17.53
2023-07-28T03:15:24.866Z,17.57
2023-07-28T03:16:24.827Z,17.46
2023-07-28T03:17:24.732Z,17.43
2023-07-28T03:18:24.639Z,17.53
2023-07-28T03:19:24.556Z,17.39
2023-07-28T03:20:24.485Z,17.33
2023-07-28T03:21:24.424Z,17.46
2023-07-28T03:22:24.331Z,17.43
2023-07-28T03:23:24.248Z,17.43
2023-07-28T03:24:24.174Z,17.30
2023-07-28T03:25:24.106Z,17.38
2023-07-28T03:26:24.024Z,17.33
2023-07-28T03:27:23.951Z,17.28
2023-07-28T03:28:23.908Z,17.36
2023-07-28T03:29:23.804Z,17.33
2023-07-28T03:30:23.791Z,17.28
2023-07-28T03:31:23.679Z,17.32
2023-07-28T03:32:23.590Z,17.35
2023-07-28T03:33:23.477Z,17.30
2023-07-28T03:34:23.400Z,17.29
2023-07-28T03:35:23.322Z,17.36
2023-07-28T03:36:23.242Z,17.38
2023-07-28T03:37:23.175Z,17.30
2023-07-28T03:38:23.095Z,17.38
2023-07-28T03:39:23.023Z,17.46
2023-07-28T03:40:22.937Z,17.25
2023-07-28T03:41:22.865Z,17.30
2023-07-28T03:42:22.794Z,17.40
2023-07-28T03:43:22.721Z,17.33
2023-07-28T03:44:22.631Z,17.39
2023-07-28T03:45:22.554Z,17.32
2023-07-28T03:46:22.566Z,17.28
2023-07-28T03:47:22.460Z,17.30
2023-07-28T03:48:22.326Z,17.28
2023-07-28T03:49:22.251Z,17.32
2023-07-28T03:50:22.171Z,17.38
2023-07-28T03:51:22.094Z,17.32
2023-07-28T03:52:22.012Z,17.40
2023-07-28T03:53:21.929Z,17.35
2023-07-28T03:54:23.377Z,17.32
2023-07-28T03:55:21.784Z,17.33
2023-07-28T03:56:21.703Z,17.29
2023-07-28T03:57:21.629Z,17.40
2023-07-28T03:58:21.548Z,17.39
2023-07-28T03:59:21.476Z,17.36
2023-07-28T04:00:21.397Z,17.29
2023-07-28T04:01:21.352Z,17.23
2023-07-28T04:02:21.243Z,17.33
2023-07-28T04:03:21.163Z,17.29
2023-07-28T04:04:21.080Z,17.33
2023-07-28T04:05:21.037Z,17.23
2023-07-28T04:06:20.930Z,17.15
2023-07-28T04:07:20.851Z,17.28
2023-07-28T04:08:20.779Z,17.18
2023-07-28T04:09:20.701Z,17.21
2023-07-28T04:10:20.616Z,17.21
2023-07-28T04:11:20.542Z,17.30
2023-07-28T04:12:20.467Z,17.28
2023-07-28T04:13:20.382Z,17.30
2023-07-28T04:14:20.306Z,17.30
2023-07-28T04:15:20.253Z,17.32
2023-07-28T04:16:20.222Z,17.29
2023-07-28T04:17:20.218Z,17.30
2023-07-28T04:18:20.005Z,17.33
2023-07-28T04:19:19.925Z,17.36
2023-07-28T04:20:19.868Z,17.35
2023-07-28T04:21:19.763Z,17.33
2023-07-28T04:22:19.689Z,17.38
2023-07-28T04:23:19.650Z,17.30
2023-07-28T04:24:19.539Z,17.38
2023-07-28T04:25:19.459Z,17.39
2023-07-28T04:26:19.393Z,17.38
2023-07-28T04:27:19.305Z,17.39
2023-07-28T04:28:19.252Z,17.39
2023-07-28T04:29:19.157Z,17.36
2023-07-28T04:30:19.072Z,17.48
2023-07-28T04:31:19.037Z,17.28
2023-07-28T04:32:18.917Z,17.26
2023-07-28T04:33:18.837Z,17.26
2023-07-28T04:34:18.763Z,17.39
2023-07-28T04:35:18.678Z,17.44
2023-07-28T04:36:18.608Z,17.47
2023-07-28T04:37:18.536Z,17.46
2023-07-28T04:38:18.475Z,17.39
2023-07-28T04:39:18.378Z,17.50
2023-07-28T04:40:18.295Z,17.50
2023-07-28T04:41:18.217Z,17.50
2023-07-28T04:42:18.150Z,17.48
2023-07-28T04:43:18.072Z,17.53
2023-07-28T04:44:17.998Z,17.50
2023-07-28T04:45:17.909Z,17.57
2023-07-28T04:46:17.840Z,17.51
2023-07-28T04:47:17.759Z,17.51
2023-07-28T04:48:17.678Z,17.43
2023-07-28T04:49:17.605Z,17.53
2023-07-28T04:50:17.529Z,17.58
2023-07-28T04:51:17.449Z,17.57
2023-07-28T04:52:17.373Z,17.54
2023-07-28T04:53:17.294Z,17.50
2023-07-28T04:54:17.220Z,17.44
2023-07-28T04:55:17.141Z,17.46
2023-07-28T04:56:17.063Z,17.46
2023-07-28T04:57:16.988Z,17.46
2023-07-28T04:58:16.918Z,17.40
2023-07-28T04:59:16.835Z,17.44
2023-07-28T05:00:16.751Z,17.32
2023-07-28T05:01:16.753Z,17.47
2023-07-28T05:02:16.627Z,17.53
2023-07-28T05:03:16.529Z,17.53
2023-07-28T05:04:16.532Z,17.46
2023-07-28T05:05:16.373Z,17.50
2023-07-28T05:06:16.300Z,17.58
2023-07-28T05:07:16.214Z,17.55
2023-07-28T05:08:16.142Z,17.58
2023-07-28T05:09:16.056Z,17.57
2023-07-28T05:10:15.979Z,17.64
2023-07-28T05:11:15.907Z,17.66
2023-07-28T05:12:15.835Z,17.64
2023-07-28T05:13:15.748Z,17.66
2023-07-28T05:14:15.675Z,17.67
2023-07-28T05:15:15.591Z,17.66
2023-07-28T05:16:15.528Z,17.69
2023-07-28T05:17:16.961Z,17.77
2023-07-28T05:18:15.377Z,17.70
2023-07-28T05:19:15.290Z,17.57
2023-07-28T05:20:15.212Z,17.58
2023-07-28T05:21:15.130Z,17.55
2023-07-28T05:22:15.053Z,17.67
2023-07-28T05:23:14.976Z,17.67
2023-07-28T05:24:14.900Z,17.67
2023-07-28T05:25:14.823Z,17.67
2023-07-28T05:26:14.758Z,17.64
2023-07-28T05:27:14.667Z,17.70
2023-07-28T05:28:14.628Z,17.64
2023-07-28T05:29:14.510Z,17.67
2023-07-28T05:30:14.436Z,17.63
2023-07-28T05:31:14.436Z,17.58
2023-07-28T05:32:14.320Z,17.66
2023-07-28T05:33:14.206Z,17.69
2023-07-28T05:34:14.157Z,17.57
2023-07-28T05:35:14.057Z,17.76
2023-07-28T05:36:13.975Z,17.67
2023-07-28T05:37:13.900Z,17.60
2023-07-28T05:38:13.822Z,17.67
2023-07-28T05:39:13.741Z,17.64
2023-07-28T05:40:13.673Z,17.64
2023-07-28T05:41:13.592Z,17.69
2023-07-28T05:42:13.518Z,17.74
2023-07-28T05:43:13.434Z,17.76
2023-07-28T05:44:13.353Z,17.73
2023-07-28T05:45:13.304Z,17.88
2023-07-28T05:46:13.219Z,17.85
2023-07-28T05:47:13.134Z,17.87
2023-07-28T05:48:13.084Z,17.87
2023-07-28T05:49:12.983Z,17.89
2023-07-28T05:50:12.897Z,17.92
2023-07-28T05:51:12.820Z,17.91
2023-07-28T05:52:12.740Z,17.95
2023-07-28T05:53:12.658Z,17.88
2023-07-28T05:54:12.580Z,17.91
2023-07-28T05:55:12.505Z,17.87
2023-07-28T05:56:12.425Z,17.89
2023-07-28T05:57:12.358Z,17.91
2023-07-28T05:58:12.281Z,18.07
2023-07-28T05:59:12.197Z,18.06
2023-07-28T06:00:12.134Z,18.00
2023-07-28T06:01:12.093Z,17.95
2023-07-28T06:02:11.991Z,18.06
2023-07-28T06:03:11.962Z,18.09
2023-07-28T06:04:11.811Z,18.03
2023-07-28T06:05:11.740Z,18.11
2023-07-28T06:06:11.668Z,18.09
2023-07-28T06:07:11.584Z,18.11
2023-07-28T06:08:11.514Z,18.13
2023-07-28T06:09:11.426Z,18.06
2023-07-28T06:10:11.354Z,18.06
2023-07-28T06:11:11.270Z,18.10
2023-07-28T06:12:11.192Z,18.19
2023-07-28T06:13:11.122Z,18.19
2023-07-28T06:14:11.048Z,18.22
2023-07-28T06:15:10.964Z,18.16
2023-07-28T06:16:10.951Z,18.13
2023-07-28T06:17:10.820Z,18.25
2023-07-28T06:18:10.729Z,18.19
2023-07-28T06:19:10.671Z,18.11
2023-07-28T06:20:10.603Z,18.16
2023-07-28T06:21:10.512Z,18.16
2023-07-28T06:22:10.428Z,18.18
2023-07-28T06:23:10.361Z,18.24
2023-07-28T06:24:10.269Z,18.28
2023-07-28T06:25:10.198Z,18.27
2023-07-28T06:26:10.118Z,18.27
2023-07-28T06:27:10.115Z,18.27
2023-07-28T06:28:09.973Z,18.16
2023-07-28T06:29:09.918Z,18.28
2023-07-28T06:30:09.821Z,18.27
2023-07-28T06:31:09.779Z,18.29
2023-07-28T06:32:09.650Z,18.31
2023-07-28T06:33:09.574Z,18.27
2023-07-28T06:34:09.498Z,18.39
2023-07-28T06:35:09.415Z,18.43
2023-07-28T06:36:09.354Z,18.43
2023-07-28T06:37:09.266Z,18.42
2023-07-28T06:38:09.194Z,18.40
2023-07-28T06:39:09.122Z,18.42
2023-07-28T06:40:09.044Z,18.53
2023-07-28T06:41:08.960Z,18.42
2023-07-28T06:42:08.879Z,18.40
2023-07-28T06:43:08.803Z,18.49
2023-07-28T06:44:08.725Z,18.44
2023-07-28T06:45:08.658Z,18.43
2023-07-28T06:46:08.593Z,18.44
2023-07-28T06:47:08.494Z,18.42
2023-07-28T06:48:08.418Z,18.34
2023-07-28T06:49:08.340Z,18.44
2023-07-28T06:50:08.304Z,18.35
2023-07-28T06:51:08.184Z,18.34
2023-07-28T06:52:08.111Z,18.43
2023-07-28T06:53:08.023Z,18.35
2023-07-28T06:54:07.951Z,18.32
2023-07-28T06:55:07.871Z,18.25
2023-07-28T06:56:07.802Z,18.35
2023-07-28T06:57:07.742Z,18.39
2023-07-28T06:58:07.646Z,18.35
2023-07-28T06:59:15.694Z,18.37
2023-07-28T07:00:07.495Z,18.35
2023-07-28T07:01:07.539Z,18.35
2023-07-28T07:02:07.385Z,18.43
2023-07-28T07:03:07.309Z,18.40
2023-07-28T07:04:07.179Z,18.39
2023-07-28T07:05:07.141Z,18.37
2023-07-28T07:06:07.030Z,18.34
2023-07-28T07:07:06.953Z,18.40
2023-07-28T07:08:06.871Z,18.37
2023-07-28T07:09:06.798Z,18.35
2023-07-28T07:10:06.722Z,18.44
2023-07-28T07:11:06.648Z,18.46
2023-07-28T07:12:06.569Z,18.52
2023-07-28T07:13:06.493Z,18.39
2023-07-28T07:14:06.409Z,18.40
2023-07-28T07:15:06.341Z,18.40
2023-07-28T07:16:06.281Z,18.39
2023-07-28T07:17:06.182Z,18.40
2023-07-28T07:18:06.127Z,18.35
2023-07-28T07:19:06.031Z,18.35
2023-07-28T07:20:05.945Z,18.37
2023-07-28T07:21:05.872Z,18.39
2023-07-28T07:22:05.799Z,18.27
2023-07-28T07:23:05.730Z,18.28
2023-07-28T07:24:05.652Z,18.35
2023-07-28T07:25:05.570Z,18.44
2023-07-28T07:26:05.498Z,18.43
2023-07-28T07:27:05.421Z,18.58
2023-07-28T07:28:05.391Z,18.55
2023-07-28T07:29:05.254Z,18.52
2023-07-28T07:30:05.189Z,18.61
2023-07-28T07:31:05.137Z,18.55
2023-07-28T07:32:05.025Z,18.65
2023-07-28T07:33:04.951Z,18.71
2023-07-28T07:34:04.870Z,18.64
2023-07-28T07:35:04.795Z,18.73
2023-07-28T07:36:04.723Z,18.76
2023-07-28T07:37:04.643Z,18.80
2023-07-28T07:38:04.567Z,18.86
2023-07-28T07:39:04.503Z,18.84
2023-07-28T07:40:04.434Z,18.97
2023-07-28T07:41:04.348Z,18.97
2023-07-28T07:42:04.303Z,18.99
2023-07-28T07:43:04.205Z,19.02
2023-07-28T07:44:04.120Z,19.14
2023-07-28T07:45:04.043Z,19.08
2023-07-28T07:46:03.983Z,19.17
2023-07-28T07:47:03.897Z,19.27
2023-07-28T07:48:03.936Z,19.28
2023-07-28T07:49:03.744Z,19.36
2023-07-28T07:50:03.670Z,19.40
2023-07-28T07:51:03.594Z,19.45
2023-07-28T07:52:03.529Z,19.48
2023-07-28T07:53:03.434Z,19.61
2023-07-28T07:54:03.363Z,19.60
2023-07-28T07:55:03.280Z,19.71
2023-07-28T07:56:03.207Z,19.76
2023-07-28T07:57:03.155Z,19.75
2023-07-28T07:58:03.050Z,19.82
2023-07-28T07:59:03.355Z,19.91
2023-07-28T08:00:02.906Z,19.91
2023-07-28T08:01:02.846Z,19.90
2023-07-28T08:02:02.764Z,19.94
2023-07-28T08:03:02.722Z,19.83
2023-07-28T08:04:02.635Z,19.91
2023-07-28T08:05:02.520Z,20.00
2023-07-28T08:06:02.449Z,20.00
2023-07-28T08:07:02.372Z,19.94
2023-07-28T08:08:02.295Z,19.95
2023-07-28T08:09:02.217Z,19.91
2023-07-28T08:10:02.136Z,19.94
2023-07-28T08:11:02.518Z,19.98
2023-07-28T08:12:01.990Z,19.98
2023-07-28T08:13:01.912Z,20.01
2023-07-28T08:14:01.840Z,20.13
2023-07-28T08:15:01.807Z,20.03
2023-07-28T08:16:01.734Z,20.24
2023-07-28T08:17:01.609Z,20.30
2023-07-28T08:18:01.589Z,20.28
2023-07-28T08:19:01.467Z,20.51
2023-07-28T08:20:01.418Z,20.37
2023-07-28T08:21:01.316Z,20.50
2023-07-28T08:22:01.239Z,20.51
2023-07-28T08:23:01.152Z,20.61
2023-07-28T08:24:01.079Z,20.49
2023-07-28T08:25:00.996Z,20.61
2023-07-28T08:26:00.925Z,20.65
2023-07-28T08:27:00.855Z,20.66
2023-07-28T08:28:00.800Z,20.84
2023-07-28T08:29:00.688Z,20.87
2023-07-28T08:30:00.645Z,20.90
2023-07-28T08:31:00.705Z,20.89
2023-07-28T08:32:00.461Z,20.86
2023-07-28T08:33:00.459Z,20.80
2023-07-28T08:34:00.329Z,20.90
2023-07-28T08:35:00.237Z,20.89
2023-07-28T08:36:02.777Z,20.91
2023-07-28T08:37:00.087Z,20.87
2023-07-28T08:38:00.012Z,20.87
2023-07-28T08:38:59.933Z,20.90
2023-07-28T08:39:59.851Z,20.87
2023-07-28T08:40:59.920Z,20.86
2023-07-28T08:41:59.718Z,20.90
2023-07-28T08:42:59.637Z,20.72
2023-07-28T08:43:59.552Z,20.76
2023-07-28T08:44:59.488Z,20.79
2023-07-28T08:45:59.404Z,20.79
2023-07-28T08:46:59.336Z,20.71
2023-07-28T08:47:59.311Z,20.75
2023-07-28T08:48:59.177Z,20.75
2023-07-28T08:49:59.099Z,20.83
2023-07-28T08:50:59.022Z,20.68
2023-07-28T08:51:58.945Z,20.62
2023-07-28T08:52:58.873Z,20.69
2023-07-28T08:53:58.797Z,20.66
2023-07-28T08:54:58.721Z,20.65
2023-07-28T08:55:58.644Z,20.66
2023-07-28T08:56:58.572Z,20.65
2023-07-28T08:57:58.486Z,20.62
2023-07-28T08:58:58.418Z,20.71
2023-07-28T08:59:58.341Z,20.62
2023-07-28T09:00:58.352Z,20.71
2023-07-28T09:01:58.220Z,20.71
2023-07-28T09:02:58.169Z,20.84
2023-07-28T09:03:58.030Z,20.69
2023-07-28T09:04:57.964Z,20.79
2023-07-28T09:05:57.882Z,20.76
2023-07-28T09:06:57.808Z,20.83
2023-07-28T09:07:57.730Z,20.82
2023-07-28T09:08:57.655Z,20.82
2023-07-28T09:09:57.596Z,20.65
2023-07-28T09:10:57.512Z,20.64
2023-07-28T09:11:57.431Z,20.69
2023-07-28T09:12:57.361Z,20.68
2023-07-28T09:13:57.276Z,20.68
2023-07-28T09:14:57.204Z,20.59
2023-07-28T09:15:57.130Z,20.51
2023-07-28T09:16:57.060Z,20.59
2023-07-28T09:17:57.003Z,20.57
2023-07-28T09:18:56.914Z,20.56
2023-07-28T09:19:56.833Z,20.64
2023-07-28T09:20:56.753Z,20.62
2023-07-28T09:21:56.677Z,20.68
2023-07-28T09:22:56.602Z,20.83
2023-07-28T09:23:56.522Z,20.87
2023-07-28T09:24:56.452Z,20.90
2023-07-28T09:25:56.365Z,20.91
2023-07-28T09:26:56.294Z,20.93
2023-07-28T09:27:56.242Z,20.98
2023-07-28T09:28:56.222Z,21.01
2023-07-28T09:29:56.378Z,20.99
2023-07-28T09:30:56.031Z,21.01
2023-07-28T09:31:55.920Z,20.93
2023-07-28T09:32:55.878Z,21.05
2023-07-28T09:33:55.770Z,20.96
2023-07-28T09:34:55.699Z,21.04
2023-07-28T09:35:55.626Z,21.05
2023-07-28T09:36:55.548Z,21.04
2023-07-28T09:37:55.464Z,21.08
2023-07-28T09:38:55.391Z,20.96
2023-07-28T09:39:55.313Z,21.01
2023-07-28T09:40:55.252Z,21.02
2023-07-28T09:41:55.171Z,21.08
2023-07-28T09:42:56.333Z,20.96
2023-07-28T09:43:55.009Z,20.99
2023-07-28T09:44:54.936Z,20.94
2023-07-28T09:45:54.878Z,20.90
2023-07-28T09:46:54.794Z,20.98
2023-07-28T09:47:54.731Z,20.91
2023-07-28T09:48:54.634Z,20.89
2023-07-28T09:49:54.564Z,20.87
2023-07-28T09:50:54.492Z,20.89
2023-07-28T09:51:54.416Z,20.90
2023-07-28T09:52:54.347Z,21.04
2023-07-28T09:53:54.268Z,20.96
2023-07-28T09:54:54.341Z,20.98
2023-07-28T09:55:54.108Z,20.89
2023-07-28T09:56:54.030Z,20.86
2023-07-28T09:57:53.960Z,20.91
2023-07-28T09:58:53.880Z,20.91
2023-07-28T09:59:53.806Z,20.79
2023-07-28T10:00:53.758Z,20.74
2023-07-28T10:01:53.687Z,20.79
2023-07-28T10:02:53.641Z,20.83
2023-07-28T10:03:53.548Z,20.86
2023-07-28T10:04:53.433Z,20.72
2023-07-28T10:05:53.352Z,20.75
2023-07-28T10:06:53.279Z,20.79
2023-07-28T10:07:53.215Z,20.79
2023-07-28T10:08:53.123Z,20.80
2023-07-28T10:09:53.045Z,20.65
2023-07-28T10:10:52.977Z,20.69
2023-07-28T10:11:52.901Z,20.82
2023-07-28T10:12:52.859Z,20.82
2023-07-28T10:13:52.798Z,20.83
2023-07-28T10:14:52.674Z,20.87
2023-07-28T10:15:52.643Z,20.82
2023-07-28T10:16:52.521Z,20.82
2023-07-28T10:17:52.469Z,20.76
2023-07-28T10:18:52.370Z,20.69
2023-07-28T10:19:52.297Z,20.79
2023-07-28T10:20:52.237Z,20.79
2023-07-28T10:21:52.139Z,20.80
2023-07-28T10:22:52.123Z,20.84
2023-07-28T10:23:51.989Z,20.93
2023-07-28T10:24:51.921Z,21.04
2023-07-28T10:25:51.869Z,21.14
2023-07-28T10:26:51.761Z,21.17
2023-07-28T10:27:51.739Z,21.27
2023-07-28T10:28:51.619Z,21.31
2023-07-28T10:29:51.539Z,21.33
2023-07-28T10:30:51.474Z,21.42
2023-07-28T10:31:51.538Z,21.57
2023-07-28T10:32:51.333Z,21.72
2023-07-28T10:33:51.232Z,21.84
2023-07-28T10:34:51.176Z,21.95
2023-07-28T10:35:51.088Z,21.85
2023-07-28T10:36:51.010Z,21.91
2023-07-28T10:37:50.930Z,21.91
2023-07-28T10:38:50.860Z,21.86
2023-07-28T10:39:50.787Z,21.85
2023-07-28T10:40:50.712Z,21.81
2023-07-28T10:41:50.636Z,21.86
2023-07-28T10:42:50.569Z,21.94
2023-07-28T10:43:50.481Z,21.92
2023-07-28T10:44:50.404Z,21.97
2023-07-28T10:45:50.349Z,22.00
2023-07-28T10:46:50.264Z,22.02
2023-07-28T10:47:50.206Z,22.17
2023-07-28T10:48:50.134Z,22.15
2023-07-28T10:49:50.035Z,22.24
2023-07-28T10:50:49.968Z,22.26
2023-07-28T10:51:49.884Z,22.39
2023-07-28T10:52:49.813Z,22.31
2023-07-28T10:53:49.738Z,22.34
2023-07-28T10:54:49.663Z,22.34
2023-07-28T10:55:49.587Z,22.42
2023-07-28T10:56:49.552Z,22.57
2023-07-28T10:57:49.432Z,22.65
2023-07-28T10:58:49.363Z,22.71
2023-07-28T10:59:49.285Z,22.77
2023-07-28T11:00:49.239Z,22.89
2023-07-28T11:01:49.217Z,22.92
2023-07-28T11:02:49.212Z,23.11
2023-07-28T11:03:48.986Z,23.05
2023-07-28T11:04:48.926Z,23.08
2023-07-28T11:05:48.833Z,23.17
2023-07-28T11:06:48.782Z,23.38
2023-07-28T11:07:48.689Z,23.29
2023-07-28T11:08:48.618Z,23.26
2023-07-28T11:09:48.567Z,23.37
2023-07-28T11:10:48.467Z,23.34
2023-07-28T11:11:48.688Z,23.38
2023-07-28T11:12:48.321Z,23.38
2023-07-28T11:13:48.259Z,23.40
2023-07-28T11:14:48.170Z,23.48
2023-07-28T11:15:48.089Z,23.48
2023-07-28T11:16:48.046Z,23.42
2023-07-28T11:17:47.963Z,23.48
2023-07-28T11:18:47.869Z,23.58
2023-07-28T11:19:47.794Z,23.71
2023-07-28T11:20:47.730Z,23.93
2023-07-28T11:21:47.668Z,24.00
2023-07-28T11:22:47.580Z,24.10
2023-07-28T11:23:47.496Z,24.01
2023-07-28T11:24:47.428Z,24.05
2023-07-28T11:25:47.354Z,24.02
2023-07-28T11:26:47.291Z,24.11
2023-07-28T11:27:47.204Z,24.10
2023-07-28T11:28:47.127Z,23.97
2023-07-28T11:29:47.063Z,24.02
2023-07-28T11:30:47.021Z,24.08
2023-07-28T11:31:46.957Z,24.08
2023-07-28T11:32:46.858Z,24.12
2023-07-28T11:33:46.783Z,24.25
2023-07-28T11:34:46.690Z,24.34
2023-07-28T11:35:46.622Z,24.48
2023-07-28T11:36:46.551Z,24.44
2023-07-28T11:37:46.474Z,24.54
2023-07-28T11:38:46.387Z,24.59
2023-07-28T11:39:46.326Z,24.56
2023-07-28T11:40:46.255Z,24.66
2023-07-28T11:41:46.183Z,24.79
2023-07-28T11:42:46.132Z,24.76
2023-07-28T11:43:46.033Z,24.71
2023-07-28T11:44:45.952Z,24.76
2023-07-28T11:45:45.883Z,24.54
2023-07-28T11:46:45.856Z,24.53
2023-07-28T11:47:45.772Z,24.40
2023-07-28T11:48:45.698Z,24.26
2023-07-28T11:49:45.591Z,24.20
2023-07-28T11:50:45.522Z,24.08
2023-07-28T11:51:45.446Z,23.93
2023-07-28T11:52:45.364Z,24.02
2023-07-28T11:53:45.292Z,23.78
2023-07-28T11:54:45.241Z,23.80
2023-07-28T11:55:45.151Z,23.89
2023-07-28T11:56:45.081Z,23.95
2023-07-28T11:57:45.004Z,24.20
2023-07-28T11:58:44.941Z,24.10
2023-07-28T11:59:44.855Z,24.17
2023-07-28T12:00:44.788Z,24.25
2023-07-28T12:02:44.864Z,24.19
2023-07-28T12:03:44.668Z,24.12
2023-07-28T12:06:55.800Z,24.19
2023-07-28T12:07:44.270Z,24.10
2023-07-28T12:08:44.203Z,24.08
2023-07-28T12:09:44.142Z,24.15
2023-07-28T12:10:44.046Z,24.07
2023-07-28T12:14:49.536Z,24.15
2023-07-28T12:19:43.556Z,24.35
2023-07-28T12:20:43.322Z,24.41
2023-07-28T12:21:43.258Z,24.34
2023-07-28T12:22:43.178Z,24.50
2023-07-28T12:24:43.025Z,24.48
2023-07-28T12:25:42.961Z,24.50
2023-07-28T12:26:42.886Z,24.63
2023-07-28T12:27:42.815Z,24.60
2023-07-28T12:28:45.124Z,24.71
2023-07-28T12:29:50.836Z,24.75
2023-07-28T12:30:42.642Z,24.63
2023-07-28T12:31:46.194Z,24.60
2023-07-28T12:33:01.438Z,24.62
2023-07-28T12:33:42.385Z,24.62
2023-07-28T12:38:42.803Z,24.52
2023-07-28T12:41:43.920Z,24.50
2023-07-28T12:46:41.446Z,24.44
2023-07-28T12:47:41.420Z,24.59
2023-07-28T12:49:52.336Z,24.60
2023-07-28T12:50:42.220Z,24.71
2023-07-28T12:51:57.835Z,24.88
2023-07-28T12:53:40.923Z,25.04
2023-07-28T12:56:00.430Z,25.13
2023-07-28T12:56:40.698Z,25.15
2023-07-28T12:57:40.628Z,25.20
2023-07-28T13:01:40.356Z,25.31
2023-07-28T13:02:40.354Z,25.37
2023-07-28T13:03:40.300Z,25.30
2023-07-28T13:04:40.119Z,25.42
2023-07-28T13:05:40.053Z,25.40
2023-07-28T13:06:39.970Z,25.42
2023-07-28T13:09:41.826Z,25.46
2023-07-28T13:13:40.129Z,25.30
2023-07-28T13:14:39.389Z,25.23
2023-07-28T13:15:39.365Z,25.30
2023-07-28T13:16:39.380Z,25.35
2023-07-28T13:17:39.193Z,25.32
2023-07-28T13:18:39.099Z,25.28
2023-07-28T13:19:39.046Z,25.30
2023-07-28T13:20:38.958Z,25.31
2023-07-28T13:21:38.885Z,25.28
2023-07-28T13:22:38.813Z,25.45
2023-07-28T13:23:38.742Z,25.41